sensor_id;sensor_type;location;lat;lon;timestamp;pressure;altitude;pressure_sealevel;temperature;humidity
16481;BME280;44634;54.110;12.138;2022-09-09T00:00:06;101102.06;;;17.16;100.00
16481;BME280;44634;54.110;12.138;2022-09-09T00:02:39;101102.59;;;17.04;100.00
16481;BME280;44634;54.110;12.138;2022-09-09T00:05:17;101086.44;;;16.97;100.00
16481;BME280;44634;54.110;12.138;2022-09-09T00:07:51;101084.81;;;16.72;100.00
16481;BME280;44634;54.110;12.138;2022-09-09T00:10:23;101076.63;;;17.37;100.00
16481;BME280;44634;54.110;12.138;2022-09-09T00:12:59;101086.44;;;17.52;100.00
16481;BME280;44634;54.110;12.138;2022-09-09T00:15:34;101094.75;;;17.58;100.00
16481;BME280;44634;54.110;12.138;2022-09-09T00:18:14;101095.00;;;17.32;100.00
16481;BME280;44634;54.110;12.138;2022-09-09T00:20:48;101092.31;;;17.40;100.00
16481;BME280;44634;54.110;12.138;2022-09-09T00:23:24;101087.38;;;17.60;100.00
16481;BME280;44634;54.110;12.138;2022-09-09T00:26:01;101094.81;;;17.41;100.00
16481;BME280;44634;54.110;12.138;2022-09-09T00:28:31;101084.03;;;17.27;100.00
16481;BME280;44634;54.110;12.138;2022-09-09T00:31:11;101086.00;;;17.33;100.00
16481;BME280;44634;54.110;12.138;2022-09-09T00:33:39;101088.34;;;17.28;100.00
16481;BME280;44634;54.110;12.138;2022-09-09T00:36:13;101083.53;;;17.23;100.00
16481;BME280;44634;54.110;12.138;2022-09-09T00:38:44;101071.00;;;17.23;100.00
16481;BME280;44634;54.110;12.138;2022-09-09T00:41:18;101081.16;;;17.67;100.00
16481;BME280;44634;54.110;12.138;2022-09-09T00:43:55;101091.44;;;17.47;100.00
16481;BME280;44634;54.110;12.138;2022-09-09T00:46:41;101096.66;;;17.41;100.00
16481;BME280;44634;54.110;12.138;2022-09-09T00:49:19;101104.50;;;17.42;100.00
16481;BME280;44634;54.110;12.138;2022-09-09T00:51:58;101095.56;;;17.66;100.00
16481;BME280;44634;54.110;12.138;2022-09-09T00:54:35;101107.88;;;17.75;100.00
16481;BME280;44634;54.110;12.138;2022-09-09T00:57:14;101116.13;;;17.10;100.00
16481;BME280;44634;54.110;12.138;2022-09-09T00:59:47;101101.41;;;17.62;100.00
16481;BME280;44634;54.110;12.138;2022-09-09T01:02:26;101102.66;;;17.51;100.00
16481;BME280;44634;54.110;12.138;2022-09-09T01:05:00;101105.59;;;17.17;100.00
16481;BME280;44634;54.110;12.138;2022-09-09T01:07:29;101100.31;;;16.92;100.00
16481;BME280;44634;54.110;12.138;2022-09-09T01:09:59;101090.72;;;17.22;100.00
16481;BME280;44634;54.110;12.138;2022-09-09T01:12:35;101094.94;;;17.56;100.00
16481;BME280;44634;54.110;12.138;2022-09-09T01:15:09;101101.25;;;17.16;100.00
16481;BME280;44634;54.110;12.138;2022-09-09T01:17:50;101108.78;;;17.60;100.00
16481;BME280;44634;54.110;12.138;2022-09-09T01:20:22;101111.09;;;17.63;100.00
16481;BME280;44634;54.110;12.138;2022-09-09T01:23:04;101111.41;;;17.68;100.00
16481;BME280;44634;54.110;12.138;2022-09-09T01:26:21;101118.00;;;17.96;100.00
16481;BME280;44634;54.110;12.138;2022-09-09T01:28:52;101132.66;;;18.00;100.00
16481;BME280;44634;54.110;12.138;2022-09-09T01:31:23;101131.47;;;17.80;100.00
16481;BME280;44634;54.110;12.138;2022-09-09T01:33:52;101137.22;;;17.52;100.00
16481;BME280;44634;54.110;12.138;2022-09-09T01:36:26;101133.63;;;18.07;100.00
16481;BME280;44634;54.110;12.138;2022-09-09T01:38:55;101147.97;;;17.83;100.00
16481;BME280;44634;54.110;12.138;2022-09-09T01:41:24;101152.84;;;18.11;100.00
16481;BME280;44634;54.110;12.138;2022-09-09T01:43:53;101156.97;;;17.91;100.00
16481;BME280;44634;54.110;12.138;2022-09-09T01:46:22;101159.94;;;17.57;100.00
16481;BME280;44634;54.110;12.138;2022-09-09T01:48:51;101156.72;;;17.61;100.00
16481;BME280;44634;54.110;12.138;2022-09-09T01:51:19;101146.09;;;17.92;100.00
16481;BME280;44634;54.110;12.138;2022-09-09T01:53:47;101156.72;;;18.08;100.00
16481;BME280;44634;54.110;12.138;2022-09-09T01:56:23;101152.34;;;18.07;100.00
16481;BME280;44634;54.110;12.138;2022-09-09T01:59:04;101150.84;;;18.36;100.00
16481;BME280;44634;54.110;12.138;2022-09-09T02:01:46;101146.31;;;18.36;100.00
16481;BME280;44634;54.110;12.138;2022-09-09T02:04:27;101140.75;;;18.23;100.00
16481;BME280;44634;54.110;12.138;2022-09-09T02:06:59;101144.00;;;17.79;100.00
16481;BME280;44634;54.110;12.138;2022-09-09T02:09:29;101139.50;;;18.03;100.00
16481;BME280;44634;54.110;12.138;2022-09-09T02:12:02;101146.25;;;17.91;100.00
16481;BME280;44634;54.110;12.138;2022-09-09T02:14:39;101146.97;;;17.84;100.00
16481;BME280;44634;54.110;12.138;2022-09-09T02:17:09;101141.25;;;17.88;100.00
16481;BME280;44634;54.110;12.138;2022-09-09T02:19:43;101151.88;;;17.73;100.00
16481;BME280;44634;54.110;12.138;2022-09-09T02:22:12;101159.50;;;17.84;100.00
16481;BME280;44634;54.110;12.138;2022-09-09T02:24:40;101151.13;;;17.87;100.00
16481;BME280;44634;54.110;12.138;2022-09-09T02:27:09;101145.41;;;17.98;100.00
16481;BME280;44634;54.110;12.138;2022-09-09T02:29:41;101150.03;;;18.04;100.00
16481;BME280;44634;54.110;12.138;2022-09-09T02:32:14;101149.38;;;18.02;100.00
16481;BME280;44634;54.110;12.138;2022-09-09T02:34:45;101139.50;;;17.64;100.00
16481;BME280;44634;54.110;12.138;2022-09-09T02:37:16;101140.13;;;17.82;100.00
16481;BME280;44634;54.110;12.138;2022-09-09T02:39:46;101139.31;;;17.81;100.00
16481;BME280;44634;54.110;12.138;2022-09-09T02:42:14;101144.00;;;17.79;100.00
16481;BME280;44634;54.110;12.138;2022-09-09T02:44:44;101139.69;;;17.70;100.00
16481;BME280;44634;54.110;12.138;2022-09-09T02:47:23;101134.53;;;17.92;100.00
16481;BME280;44634;54.110;12.138;2022-09-09T02:50:00;101146.94;;;17.45;100.00
16481;BME280;44634;54.110;12.138;2022-09-09T02:52:37;101148.00;;;17.75;100.00
16481;BME280;44634;54.110;12.138;2022-09-09T02:55:10;101138.13;;;17.76;100.00
16481;BME280;44634;54.110;12.138;2022-09-09T02:57:40;101145.22;;;18.00;100.00
16481;BME280;44634;54.110;12.138;2022-09-09T03:00:11;101140.81;;;18.07;100.00
16481;BME280;44634;54.110;12.138;2022-09-09T03:02:39;101139.66;;;18.09;100.00
16481;BME280;44634;54.110;12.138;2022-09-09T03:05:08;101129.47;;;18.51;100.00
16481;BME280;44634;54.110;12.138;2022-09-09T03:07:36;101133.53;;;18.24;100.00
16481;BME280;44634;54.110;12.138;2022-09-09T03:10:06;101133.34;;;18.25;100.00
16481;BME280;44634;54.110;12.138;2022-09-09T03:12:34;101128.94;;;18.55;100.00
16481;BME280;44634;54.110;12.138;2022-09-09T03:15:02;101125.47;;;18.01;100.00
16481;BME280;44634;54.110;12.138;2022-09-09T03:17:31;101132.31;;;17.72;100.00
16481;BME280;44634;54.110;12.138;2022-09-09T03:20:00;101133.25;;;17.88;100.00
16481;BME280;44634;54.110;12.138;2022-09-09T03:22:27;101136.72;;;17.96;100.00
16481;BME280;44634;54.110;12.138;2022-09-09T03:24:55;101133.78;;;18.06;100.00
16481;BME280;44634;54.110;12.138;2022-09-09T03:27:23;101138.56;;;18.19;100.00
16481;BME280;44634;54.110;12.138;2022-09-09T03:29:51;101141.41;;;17.94;100.00
16481;BME280;44634;54.110;12.138;2022-09-09T03:32:19;101139.63;;;17.78;100.00
16481;BME280;44634;54.110;12.138;2022-09-09T03:34:50;101144.09;;;17.94;100.00
16481;BME280;44634;54.110;12.138;2022-09-09T03:37:18;101138.13;;;18.38;100.00
16481;BME280;44634;54.110;12.138;2022-09-09T03:39:46;101141.91;;;17.50;100.00
16481;BME280;44634;54.110;12.138;2022-09-09T03:42:15;101144.19;;;17.62;100.00
16481;BME280;44634;54.110;12.138;2022-09-09T03:44:45;101142.84;;;17.74;100.00
16481;BME280;44634;54.110;12.138;2022-09-09T03:47:17;101156.13;;;17.90;100.00
16481;BME280;44634;54.110;12.138;2022-09-09T03:49:45;101157.75;;;17.99;100.00
16481;BME280;44634;54.110;12.138;2022-09-09T03:52:15;101150.53;;;17.61;100.00
16481;BME280;44634;54.110;12.138;2022-09-09T03:54:48;101152.91;;;17.55;100.00
16481;BME280;44634;54.110;12.138;2022-09-09T03:57:16;101151.56;;;17.60;100.00
16481;BME280;44634;54.110;12.138;2022-09-09T03:59:44;101154.94;;;17.93;100.00
16481;BME280;44634;54.110;12.138;2022-09-09T04:02:12;101152.41;;;17.99;100.00
16481;BME280;44634;54.110;12.138;2022-09-09T04:04:39;101167.13;;;17.48;100.00
16481;BME280;44634;54.110;12.138;2022-09-09T04:07:07;101162.84;;;17.31;100.00
16481;BME280;44634;54.110;12.138;2022-09-09T04:09:36;101168.59;;;17.59;100.00
16481;BME280;44634;54.110;12.138;2022-09-09T04:12:04;101170.19;;;17.37;100.00
16481;BME280;44634;54.110;12.138;2022-09-09T04:14:33;101173.00;;;17.43;100.00
16481;BME280;44634;54.110;12.138;2022-09-09T04:17:00;101170.56;;;17.81;100.00
16481;BME280;44634;54.110;12.138;2022-09-09T04:19:32;101179.59;;;17.64;100.00
16481;BME280;44634;54.110;12.138;2022-09-09T04:22:00;101189.13;;;17.74;100.00
16481;BME280;44634;54.110;12.138;2022-09-09T04:24:28;101183.94;;;17.65;100.00
16481;BME280;44634;54.110;12.138;2022-09-09T04:26:57;101185.19;;;17.54;100.00
16481;BME280;44634;54.110;12.138;2022-09-09T04:29:24;101195.53;;;17.49;100.00
16481;BME280;44634;54.110;12.138;2022-09-09T04:31:52;101191.31;;;17.71;100.00
16481;BME280;44634;54.110;12.138;2022-09-09T04:34:20;101196.91;;;17.37;100.00
16481;BME280;44634;54.110;12.138;2022-09-09T04:36:48;101192.94;;;17.16;100.00
16481;BME280;44634;54.110;12.138;2022-09-09T04:39:16;101185.44;;;17.12;100.00
16481;BME280;44634;54.110;12.138;2022-09-09T04:41:43;101179.84;;;17.46;100.00
16481;BME280;44634;54.110;12.138;2022-09-09T04:44:13;101185.72;;;17.89;100.00
16481;BME280;44634;54.110;12.138;2022-09-09T04:46:43;101190.50;;;18.09;100.00
16481;BME280;44634;54.110;12.138;2022-09-09T04:49:11;101198.84;;;18.06;100.00
16481;BME280;44634;54.110;12.138;2022-09-09T04:51:40;101197.53;;;17.47;100.00
16481;BME280;44634;54.110;12.138;2022-09-09T04:54:09;101207.44;;;17.30;100.00
16481;BME280;44634;54.110;12.138;2022-09-09T04:56:38;101200.66;;;17.75;100.00
16481;BME280;44634;54.110;12.138;2022-09-09T04:59:08;101209.34;;;17.85;100.00
16481;BME280;44634;54.110;12.138;2022-09-09T05:01:37;101212.03;;;17.77;100.00
16481;BME280;44634;54.110;12.138;2022-09-09T05:04:05;101207.75;;;17.43;100.00
16481;BME280;44634;54.110;12.138;2022-09-09T05:06:33;101205.19;;;17.66;100.00
16481;BME280;44634;54.110;12.138;2022-09-09T05:09:02;101198.00;;;17.67;100.00
16481;BME280;44634;54.110;12.138;2022-09-09T05:11:32;101200.69;;;17.67;100.00
16481;BME280;44634;54.110;12.138;2022-09-09T05:14:03;101217.56;;;17.59;100.00
16481;BME280;44634;54.110;12.138;2022-09-09T05:16:31;101211.38;;;17.59;100.00
16481;BME280;44634;54.110;12.138;2022-09-09T05:19:01;101214.75;;;17.69;100.00
16481;BME280;44634;54.110;12.138;2022-09-09T05:21:30;101217.59;;;18.06;100.00
16481;BME280;44634;54.110;12.138;2022-09-09T05:23:58;101219.91;;;17.62;100.00
16481;BME280;44634;54.110;12.138;2022-09-09T05:26:27;101214.22;;;17.65;100.00
16481;BME280;44634;54.110;12.138;2022-09-09T05:28:56;101217.97;;;17.32;100.00
16481;BME280;44634;54.110;12.138;2022-09-09T05:31:25;101204.00;;;17.77;100.00
16481;BME280;44634;54.110;12.138;2022-09-09T05:33:54;101216.28;;;17.31;100.00
16481;BME280;44634;54.110;12.138;2022-09-09T05:36:23;101214.75;;;17.52;100.00
16481;BME280;44634;54.110;12.138;2022-09-09T05:38:51;101212.66;;;17.95;100.00
16481;BME280;44634;54.110;12.138;2022-09-09T05:41:20;101222.31;;;17.24;100.00
16481;BME280;44634;54.110;12.138;2022-09-09T05:43:49;101210.47;;;17.91;100.00
16481;BME280;44634;54.110;12.138;2022-09-09T05:46:18;101202.25;;;18.00;100.00
16481;BME280;44634;54.110;12.138;2022-09-09T05:48:48;101212.97;;;17.92;100.00
16481;BME280;44634;54.110;12.138;2022-09-09T05:51:18;101212.78;;;17.30;100.00
16481;BME280;44634;54.110;12.138;2022-09-09T05:53:49;101205.53;;;17.79;100.00
16481;BME280;44634;54.110;12.138;2022-09-09T05:56:19;101219.16;;;17.93;100.00
16481;BME280;44634;54.110;12.138;2022-09-09T05:58:48;101212.75;;;18.33;100.00
16481;BME280;44634;54.110;12.138;2022-09-09T06:01:17;101215.91;;;18.36;100.00
16481;BME280;44634;54.110;12.138;2022-09-09T06:03:46;101241.91;;;18.28;100.00
16481;BME280;44634;54.110;12.138;2022-09-09T06:06:16;101240.34;;;18.41;100.00
16481;BME280;44634;54.110;12.138;2022-09-09T06:08:44;101245.69;;;18.10;100.00
16481;BME280;44634;54.110;12.138;2022-09-09T06:11:15;101237.25;;;18.53;100.00
16481;BME280;44634;54.110;12.138;2022-09-09T06:13:44;101247.06;;;18.68;100.00
16481;BME280;44634;54.110;12.138;2022-09-09T06:16:14;101247.56;;;17.94;100.00
16481;BME280;44634;54.110;12.138;2022-09-09T06:18:42;101248.88;;;18.37;100.00
16481;BME280;44634;54.110;12.138;2022-09-09T06:21:15;101244.84;;;18.41;100.00
16481;BME280;44634;54.110;12.138;2022-09-09T06:23:43;101251.41;;;17.99;100.00
16481;BME280;44634;54.110;12.138;2022-09-09T06:26:15;101260.91;;;18.10;100.00
16481;BME280;44634;54.110;12.138;2022-09-09T06:28:44;101259.00;;;18.19;100.00
16481;BME280;44634;54.110;12.138;2022-09-09T06:31:14;101252.75;;;18.65;100.00
16481;BME280;44634;54.110;12.138;2022-09-09T06:33:43;101262.72;;;18.49;100.00
16481;BME280;44634;54.110;12.138;2022-09-09T06:36:13;101258.25;;;18.72;100.00
16481;BME280;44634;54.110;12.138;2022-09-09T06:38:41;101252.13;;;18.55;100.00
16481;BME280;44634;54.110;12.138;2022-09-09T06:41:10;101250.16;;;18.18;100.00
16481;BME280;44634;54.110;12.138;2022-09-09T06:43:40;101248.13;;;17.81;100.00
16481;BME280;44634;54.110;12.138;2022-09-09T06:46:11;101254.25;;;17.98;100.00
16481;BME280;44634;54.110;12.138;2022-09-09T06:48:39;101254.94;;;18.31;100.00
16481;BME280;44634;54.110;12.138;2022-09-09T06:51:09;101257.91;;;18.36;100.00
16481;BME280;44634;54.110;12.138;2022-09-09T06:53:38;101259.44;;;18.38;100.00
16481;BME280;44634;54.110;12.138;2022-09-09T06:56:19;101242.31;;;19.16;100.00
16481;BME280;44634;54.110;12.138;2022-09-09T06:58:50;101254.19;;;18.76;100.00
16481;BME280;44634;54.110;12.138;2022-09-09T07:01:19;101245.56;;;18.89;100.00
16481;BME280;44634;54.110;12.138;2022-09-09T07:03:49;101245.47;;;19.20;100.00
16481;BME280;44634;54.110;12.138;2022-09-09T07:06:19;101244.09;;;18.86;100.00
16481;BME280;44634;54.110;12.138;2022-09-09T07:08:50;101236.81;;;18.10;100.00
16481;BME280;44634;54.110;12.138;2022-09-09T07:11:24;101252.66;;;18.51;100.00
16481;BME280;44634;54.110;12.138;2022-09-09T07:13:55;101257.25;;;18.34;100.00
16481;BME280;44634;54.110;12.138;2022-09-09T07:16:24;101268.25;;;18.47;100.00
16481;BME280;44634;54.110;12.138;2022-09-09T07:18:52;101282.00;;;18.05;100.00
16481;BME280;44634;54.110;12.138;2022-09-09T07:21:25;101274.06;;;18.20;100.00
16481;BME280;44634;54.110;12.138;2022-09-09T07:23:53;101284.94;;;18.57;100.00
16481;BME280;44634;54.110;12.138;2022-09-09T07:26:23;101289.47;;;18.57;100.00
16481;BME280;44634;54.110;12.138;2022-09-09T07:28:51;101283.28;;;19.10;100.00
16481;BME280;44634;54.110;12.138;2022-09-09T07:31:22;101287.91;;;18.62;100.00
16481;BME280;44634;54.110;12.138;2022-09-09T07:33:51;101286.63;;;18.50;100.00
16481;BME280;44634;54.110;12.138;2022-09-09T07:36:21;101282.94;;;18.51;100.00
16481;BME280;44634;54.110;12.138;2022-09-09T07:38:51;101287.56;;;17.95;100.00
16481;BME280;44634;54.110;12.138;2022-09-09T07:41:22;101286.50;;;18.12;100.00
16481;BME280;44634;54.110;12.138;2022-09-09T07:43:51;101293.16;;;18.87;100.00
16481;BME280;44634;54.110;12.138;2022-09-09T07:46:25;101291.94;;;18.27;100.00
16481;BME280;44634;54.110;12.138;2022-09-09T07:48:54;101296.50;;;18.19;100.00
16481;BME280;44634;54.110;12.138;2022-09-09T07:51:24;101295.94;;;18.93;100.00
16481;BME280;44634;54.110;12.138;2022-09-09T07:53:54;101288.72;;;18.71;100.00
16481;BME280;44634;54.110;12.138;2022-09-09T07:56:25;101296.72;;;19.02;100.00
16481;BME280;44634;54.110;12.138;2022-09-09T07:58:54;101292.31;;;18.86;100.00
16481;BME280;44634;54.110;12.138;2022-09-09T08:01:26;101294.03;;;19.02;100.00
16481;BME280;44634;54.110;12.138;2022-09-09T08:03:56;101286.78;;;18.26;100.00
16481;BME280;44634;54.110;12.138;2022-09-09T08:06:26;101286.78;;;18.18;100.00
16481;BME280;44634;54.110;12.138;2022-09-09T08:08:54;101290.72;;;17.99;100.00
16481;BME280;44634;54.110;12.138;2022-09-09T08:11:24;101292.69;;;18.13;100.00
16481;BME280;44634;54.110;12.138;2022-09-09T08:13:52;101299.06;;;18.04;100.00
16481;BME280;44634;54.110;12.138;2022-09-09T08:16:30;101287.63;;;18.18;100.00
16481;BME280;44634;54.110;12.138;2022-09-09T08:18:58;101296.47;;;18.27;100.00
16481;BME280;44634;54.110;12.138;2022-09-09T08:21:28;101302.31;;;18.61;100.00
16481;BME280;44634;54.110;12.138;2022-09-09T08:23:58;101305.25;;;18.83;100.00
16481;BME280;44634;54.110;12.138;2022-09-09T08:26:28;101307.16;;;18.66;100.00
16481;BME280;44634;54.110;12.138;2022-09-09T08:28:57;101304.66;;;18.64;100.00
16481;BME280;44634;54.110;12.138;2022-09-09T08:31:28;101317.84;;;18.74;100.00
16481;BME280;44634;54.110;12.138;2022-09-09T08:33:57;101318.91;;;18.18;100.00
16481;BME280;44634;54.110;12.138;2022-09-09T08:36:27;101317.78;;;18.04;100.00
16481;BME280;44634;54.110;12.138;2022-09-09T08:38:56;101322.66;;;19.10;100.00
16481;BME280;44634;54.110;12.138;2022-09-09T08:41:56;101329.91;;;18.31;100.00
16481;BME280;44634;54.110;12.138;2022-09-09T08:44:37;101330.88;;;18.77;100.00
16481;BME280;44634;54.110;12.138;2022-09-09T08:47:19;101327.19;;;18.78;100.00
16481;BME280;44634;54.110;12.138;2022-09-09T08:50:00;101316.50;;;19.01;100.00
16481;BME280;44634;54.110;12.138;2022-09-09T08:52:36;101317.47;;;18.77;100.00
16481;BME280;44634;54.110;12.138;2022-09-09T08:55:18;101311.09;;;18.78;100.00
16481;BME280;44634;54.110;12.138;2022-09-09T08:57:49;101305.19;;;19.51;100.00
16481;BME280;44634;54.110;12.138;2022-09-09T09:00:19;101304.72;;;19.71;100.00
16481;BME280;44634;54.110;12.138;2022-09-09T09:02:55;101292.38;;;19.61;100.00
16481;BME280;44634;54.110;12.138;2022-09-09T09:05:33;101288.16;;;19.97;100.00
16481;BME280;44634;54.110;12.138;2022-09-09T09:08:10;101278.22;;;20.77;100.00
16481;BME280;44634;54.110;12.138;2022-09-09T09:10:45;101246.19;;;20.10;100.00
16481;BME280;44634;54.110;12.138;2022-09-09T09:13:16;101242.31;;;20.13;100.00
16481;BME280;44634;54.110;12.138;2022-09-09T09:15:47;101226.28;;;20.19;100.00
16481;BME280;44634;54.110;12.138;2022-09-09T09:18:18;101214.22;;;20.30;100.00
16481;BME280;44634;54.110;12.138;2022-09-09T09:20:55;101194.22;;;19.67;100.00
16481;BME280;44634;54.110;12.138;2022-09-09T09:23:33;101189.56;;;20.05;100.00
16481;BME280;44634;54.110;12.138;2022-09-09T09:26:09;101191.06;;;19.49;100.00
16481;BME280;44634;54.110;12.138;2022-09-09T09:28:39;101201.94;;;19.18;100.00
16481;BME280;44634;54.110;12.138;2022-09-09T09:31:10;101233.47;;;18.93;100.00
16481;BME280;44634;54.110;12.138;2022-09-09T09:33:49;101235.31;;;18.92;100.00
16481;BME280;44634;54.110;12.138;2022-09-09T09:36:17;101233.00;;;19.65;100.00
16481;BME280;44634;54.110;12.138;2022-09-09T09:38:55;101211.53;;;19.79;100.00
16481;BME280;44634;54.110;12.138;2022-09-09T09:41:44;101193.84;;;20.00;100.00
16481;BME280;44634;54.110;12.138;2022-09-09T09:44:23;101147.03;;;21.16;100.00
16481;BME280;44634;54.110;12.138;2022-09-09T09:46:51;101100.19;;;21.38;100.00
16481;BME280;44634;54.110;12.138;2022-09-09T09:49:20;101062.09;;;21.28;100.00
16481;BME280;44634;54.110;12.138;2022-09-09T09:51:49;101031.00;;;21.73;100.00
16481;BME280;44634;54.110;12.138;2022-09-09T09:54:24;100959.75;;;22.68;100.00
16481;BME280;44634;54.110;12.138;2022-09-09T09:56:55;100940.66;;;22.76;100.00
16481;BME280;44634;54.110;12.138;2022-09-09T09:59:33;100883.81;;;22.91;100.00
16481;BME280;44634;54.110;12.138;2022-09-09T10:02:13;100884.75;;;22.52;100.00
16481;BME280;44634;54.110;12.138;2022-09-09T10:04:43;100905.38;;;22.84;100.00
16481;BME280;44634;54.110;12.138;2022-09-09T10:07:12;100852.25;;;23.55;100.00
16481;BME280;44634;54.110;12.138;2022-09-09T10:09:40;100769.13;;;24.73;100.00
16481;BME280;44634;54.110;12.138;2022-09-09T10:12:17;100681.63;;;26.20;100.00
16481;BME280;44634;54.110;12.138;2022-09-09T10:14:54;100658.06;;;25.68;100.00
16481;BME280;44634;54.110;12.138;2022-09-09T10:17:32;100625.16;;;25.01;100.00
16481;BME280;44634;54.110;12.138;2022-09-09T10:20:26;100621.34;;;24.67;100.00
16481;BME280;44634;54.110;12.138;2022-09-09T10:23:06;100564.09;;;26.76;100.00
16481;BME280;44634;54.110;12.138;2022-09-09T10:25:58;100488.59;;;25.44;100.00
16481;BME280;44634;54.110;12.138;2022-09-09T10:31:23;100656.69;;;26.34;100.00
16481;BME280;44634;54.110;12.138;2022-09-09T10:34:03;100723.66;;;28.02;100.00
16481;BME280;44634;54.110;12.138;2022-09-09T10:36:41;100909.78;;;28.16;100.00
16481;BME280;44634;54.110;12.138;2022-09-09T10:39:20;100860.03;;;25.76;100.00
16481;BME280;44634;54.110;12.138;2022-09-09T10:41:56;100769.59;;;26.29;100.00
16481;BME280;44634;54.110;12.138;2022-09-09T10:44:38;100796.78;;;26.57;100.00
16481;BME280;44634;54.110;12.138;2022-09-09T10:47:50;100859.66;;;26.43;100.00
16481;BME280;44634;54.110;12.138;2022-09-09T10:50:40;100879.16;;;26.68;100.00
16481;BME280;44634;54.110;12.138;2022-09-09T10:53:41;100811.47;;;25.51;100.00
16481;BME280;44634;54.110;12.138;2022-09-09T10:56:16;100809.72;;;26.03;100.00
16481;BME280;44634;54.110;12.138;2022-09-09T10:58:48;100808.25;;;25.31;100.00
16481;BME280;44634;54.110;12.138;2022-09-09T11:01:21;100823.69;;;25.42;100.00
16481;BME280;44634;54.110;12.138;2022-09-09T11:03:53;100827.50;;;25.64;100.00
16481;BME280;44634;54.110;12.138;2022-09-09T11:06:27;100876.59;;;27.02;100.00
16481;BME280;44634;54.110;12.138;2022-09-09T11:08:59;100902.72;;;27.19;100.00
16481;BME280;44634;54.110;12.138;2022-09-09T11:11:32;100920.53;;;27.44;100.00
16481;BME280;44634;54.110;12.138;2022-09-09T11:14:10;100926.72;;;26.47;100.00
16481;BME280;44634;54.110;12.138;2022-09-09T11:16:42;100934.69;;;27.74;100.00
16481;BME280;44634;54.110;12.138;2022-09-09T11:19:18;100947.59;;;28.34;100.00
16481;BME280;44634;54.110;12.138;2022-09-09T11:21:49;100958.25;;;27.85;100.00
16481;BME280;44634;54.110;12.138;2022-09-09T11:24:23;100956.34;;;27.12;100.00
16481;BME280;44634;54.110;12.138;2022-09-09T11:26:57;100951.53;;;27.31;100.00
16481;BME280;44634;54.110;12.138;2022-09-09T11:29:41;100891.28;;;24.88;100.00
16481;BME280;44634;54.110;12.138;2022-09-09T11:32:28;100858.81;;;24.88;100.00
16481;BME280;44634;54.110;12.138;2022-09-09T11:35:14;100848.06;;;24.82;100.00
16481;BME280;44634;54.110;12.138;2022-09-09T11:38:01;100753.63;;;24.80;100.00
16481;BME280;44634;54.110;12.138;2022-09-09T11:40:32;100752.63;;;24.93;100.00
16481;BME280;44634;54.110;12.138;2022-09-09T11:43:03;100733.91;;;24.91;100.00
16481;BME280;44634;54.110;12.138;2022-09-09T11:45:33;100653.84;;;24.90;100.00
16481;BME280;44634;54.110;12.138;2022-09-09T11:48:03;100767.47;;;26.43;100.00
16481;BME280;44634;54.110;12.138;2022-09-09T11:50:34;100769.97;;;25.04;100.00
16481;BME280;44634;54.110;12.138;2022-09-09T11:53:14;100753.03;;;25.08;100.00
16481;BME280;44634;54.110;12.138;2022-09-09T11:55:48;100763.81;;;25.73;100.00
16481;BME280;44634;54.110;12.138;2022-09-09T11:58:17;100758.16;;;24.98;100.00
16481;BME280;44634;54.110;12.138;2022-09-09T12:00:48;100704.09;;;24.68;100.00
16481;BME280;44634;54.110;12.138;2022-09-09T12:03:39;100711.81;;;24.95;100.00
16481;BME280;44634;54.110;12.138;2022-09-09T12:06:11;100742.38;;;24.95;100.00
16481;BME280;44634;54.110;12.138;2022-09-09T12:08:43;100740.56;;;25.07;100.00
16481;BME280;44634;54.110;12.138;2022-09-09T12:11:24;100818.50;;;25.40;100.00
16481;BME280;44634;54.110;12.138;2022-09-09T12:13:53;100835.28;;;26.19;100.00
16481;BME280;44634;54.110;12.138;2022-09-09T12:16:32;100812.53;;;24.78;100.00
16481;BME280;44634;54.110;12.138;2022-09-09T12:19:06;100816.81;;;25.93;100.00
16481;BME280;44634;54.110;12.138;2022-09-09T12:21:39;100859.16;;;25.64;100.00
16481;BME280;44634;54.110;12.138;2022-09-09T12:24:16;100798.38;;;24.65;100.00
16481;BME280;44634;54.110;12.138;2022-09-09T12:26:56;100778.88;;;24.08;100.00
16481;BME280;44634;54.110;12.138;2022-09-09T12:29:32;100785.56;;;24.42;100.00
16481;BME280;44634;54.110;12.138;2022-09-09T12:32:07;100763.41;;;23.96;100.00
16481;BME280;44634;54.110;12.138;2022-09-09T12:34:39;100753.13;;;23.87;100.00
16481;BME280;44634;54.110;12.138;2022-09-09T12:37:15;100760.34;;;25.08;100.00
16481;BME280;44634;54.110;12.138;2022-09-09T12:39:49;100683.56;;;24.00;100.00
16481;BME280;44634;54.110;12.138;2022-09-09T12:42:21;100564.91;;;23.02;100.00
16481;BME280;44634;54.110;12.138;2022-09-09T12:44:57;100640.63;;;21.48;100.00
16481;BME280;44634;54.110;12.138;2022-09-09T12:47:32;100765.56;;;21.85;100.00
16481;BME280;44634;54.110;12.138;2022-09-09T12:50:03;100743.63;;;21.88;100.00
16481;BME280;44634;54.110;12.138;2022-09-09T12:52:32;100736.81;;;21.73;100.00
16481;BME280;44634;54.110;12.138;2022-09-09T12:55:02;100731.97;;;22.14;100.00
16481;BME280;44634;54.110;12.138;2022-09-09T12:57:35;100844.19;;;22.27;100.00
16481;BME280;44634;54.110;12.138;2022-09-09T13:00:06;100927.47;;;22.42;100.00